createdAt,value
2019-02-23T00:00:32.226Z,58.47
2019-02-23T00:05:35.835Z,42.97
2019-02-23T00:10:39.648Z,35.85
2019-02-23T00:15:43.371Z,34.23
2019-02-23T00:21:05.772Z,31.07
2019-02-23T00:26:10.294Z,28.77
2019-02-23T00:31:13.774Z,28.47
2019-02-23T00:36:17.387Z,33.83
2019-02-23T00:41:20.978Z,33.17
2019-02-23T00:46:24.624Z,29.77
2019-02-23T00:51:28.343Z,30.60
2019-02-23T00:56:36.449Z,274.97
2019-02-23T01:01:43.554Z,186.28
2019-02-23T01:06:57.259Z,341.43
2019-02-23T01:12:00.816Z,178.50
2019-02-23T01:17:04.735Z,385.43
2019-02-23T01:22:08.418Z,352.77
2019-02-23T01:27:11.974Z,307.03
2019-02-23T01:32:15.697Z,341.20
2019-02-23T01:37:19.483Z,148.63
2019-02-23T01:42:23.293Z,89.77
2019-02-23T01:47:26.938Z,179.30
2019-02-23T01:52:30.867Z,145.80
2019-02-23T01:57:34.793Z,140.70
2019-02-23T02:02:38.612Z,279.40
2019-02-23T02:07:42.849Z,290.03
2019-02-23T02:12:53.560Z,335.35
2019-02-23T02:17:57.956Z,199.83
2019-02-23T02:23:04.118Z,111.67
2019-02-23T02:28:14.287Z,66.67
2019-02-23T02:33:31.772Z,41.27
2019-02-23T02:38:36.499Z,31.80
2019-02-23T02:48:51.808Z,28.43
2019-02-23T02:54:02.240Z,35.33
2019-02-23T02:59:11.152Z,108.35
2019-02-23T03:04:15.653Z,60.83
2019-02-23T03:09:26.634Z,49.43
2019-02-23T03:14:30.682Z,28.60
2019-02-23T03:19:34.403Z,24.20
2019-02-23T03:24:37.997Z,20.23
2019-02-23T03:29:41.625Z,20.40
2019-02-23T03:34:45.613Z,18.40
2019-02-23T03:39:49.298Z,17.10
2019-02-23T03:44:52.775Z,16.13
2019-02-23T03:49:56.543Z,15.17
2019-02-23T03:55:00.183Z,14.15
2019-02-23T04:00:04.013Z,14.20
2019-02-23T04:05:07.558Z,13.57
2019-02-23T04:15:14.675Z,12.93
2019-02-23T04:20:18.303Z,11.70
2019-02-23T04:25:21.801Z,11.40
2019-02-23T04:30:25.534Z,10.90
2019-02-23T04:45:36.366Z,10.03
2019-02-23T04:50:39.893Z,10.00
2019-02-23T04:55:43.709Z,10.10
2019-02-23T05:00:46.984Z,9.03
2019-02-23T05:05:50.524Z,9.78
2019-02-23T05:15:57.918Z,8.93
2019-02-23T05:21:01.678Z,8.73
2019-02-23T05:26:05.291Z,8.80
2019-02-23T05:31:08.831Z,8.47
2019-02-23T05:36:12.737Z,8.40
2019-02-23T05:41:16.343Z,8.30
2019-02-23T05:46:19.857Z,8.30
2019-02-23T05:51:24.403Z,7.83
2019-02-23T06:01:31.520Z,7.83
2019-02-23T06:11:38.659Z,7.63
2019-02-23T06:16:42.281Z,7.33
2019-02-23T06:22:28.283Z,7.23
2019-02-23T06:27:31.803Z,7.37
2019-02-23T06:32:35.406Z,7.77
2019-02-23T06:37:39.020Z,7.30
2019-02-23T06:42:42.748Z,7.80
2019-02-23T06:47:46.356Z,7.33
2019-02-23T06:52:49.867Z,7.57
2019-02-23T06:57:54.505Z,7.00
2019-02-23T07:08:01.532Z,6.87
2019-02-23T07:18:08.692Z,6.67
2019-02-23T07:23:12.968Z,6.90
2019-02-23T07:28:16.620Z,6.53
2019-02-23T07:33:32.410Z,6.40
2019-02-23T07:38:25.590Z,7.37
2019-02-23T07:43:29.307Z,6.70
2019-02-23T07:48:32.816Z,6.57
2019-02-23T07:53:36.752Z,5.87
2019-02-23T07:58:40.354Z,6.23
2019-02-23T08:03:43.872Z,6.27
2019-02-23T08:08:47.701Z,6.67
2019-02-23T08:13:51.320Z,6.03
2019-02-23T08:18:54.823Z,6.67
2019-02-23T08:23:58.441Z,6.07
2019-02-23T08:29:02.299Z,5.77
2019-02-23T08:34:05.770Z,6.10
2019-02-23T08:39:09.490Z,5.83
2019-02-23T08:44:13.026Z,5.70
2019-02-23T08:49:16.622Z,5.80
2019-02-23T08:54:20.281Z,5.80
2019-02-23T08:59:23.748Z,5.27
2019-02-23T09:04:27.364Z,5.63
2019-02-23T09:09:30.953Z,5.63
2019-02-23T09:14:35.280Z,5.60
2019-02-23T09:19:38.825Z,5.80
2019-02-23T09:24:42.850Z,5.30
2019-02-23T09:29:46.683Z,5.30
2019-02-23T09:34:50.295Z,5.60
2019-02-23T09:39:53.795Z,5.50
2019-02-23T09:44:57.395Z,5.30
2019-02-23T09:50:00.999Z,5.70
2019-02-23T09:55:04.662Z,5.40
2019-02-23T10:00:08.278Z,5.67
2019-02-23T10:05:11.777Z,5.53
2019-02-23T10:10:16.616Z,5.67
2019-02-23T10:15:20.336Z,5.53
2019-02-23T10:20:23.851Z,5.40
2019-02-23T10:25:28.019Z,5.85
2019-02-23T10:30:31.590Z,4.97
2019-02-23T10:40:38.822Z,5.22
2019-02-23T10:45:42.645Z,5.10
2019-02-23T10:50:48.998Z,4.80
2019-02-23T10:55:52.651Z,4.93
2019-02-23T11:00:56.272Z,5.10
2019-02-23T11:06:00.083Z,4.43
2019-02-23T11:11:04.724Z,4.67
2019-02-23T11:16:08.331Z,4.90
2019-02-23T11:21:11.851Z,4.30
2019-02-23T11:36:22.702Z,5.03
2019-02-23T11:41:26.308Z,4.33
2019-02-23T11:46:29.823Z,4.90
2019-02-23T11:51:33.744Z,4.60
2019-02-23T11:56:37.362Z,4.70
2019-02-23T12:01:40.908Z,4.80
2019-02-23T12:06:44.702Z,4.20
2019-02-23T12:11:48.310Z,4.42
2019-02-23T12:16:51.822Z,4.60
2019-02-23T12:21:55.550Z,4.60
2019-02-23T12:27:13.708Z,3.83
2019-02-23T12:32:17.434Z,3.70
2019-02-23T12:37:21.004Z,3.87
2019-02-23T12:42:24.650Z,3.77
2019-02-23T12:47:28.570Z,3.80
2019-02-23T12:57:35.505Z,3.47
2019-02-23T13:02:39.040Z,3.27
2019-02-23T13:07:42.624Z,3.43
2019-02-23T13:12:46.274Z,3.42
2019-02-23T13:17:49.760Z,3.53
2019-02-23T13:22:53.368Z,3.20
2019-02-23T13:27:56.958Z,3.10
2019-02-23T13:33:00.611Z,3.00
2019-02-23T13:38:04.319Z,3.30
2019-02-23T13:43:07.835Z,3.03
2019-02-23T13:48:11.655Z,2.93
2019-02-23T13:53:15.286Z,3.30
2019-02-23T13:58:18.989Z,3.23
2019-02-23T14:03:22.616Z,2.80
2019-02-23T14:08:26.330Z,2.50
2019-02-23T14:13:29.835Z,2.60
2019-02-23T14:18:34.705Z,2.80
2019-02-23T14:23:38.396Z,2.40
2019-02-23T14:28:41.995Z,3.00
2019-02-23T14:33:45.547Z,2.47
2019-02-23T14:43:52.667Z,2.90
2019-02-23T14:48:56.274Z,2.70
2019-02-23T14:53:59.821Z,2.60
2019-02-23T14:59:03.441Z,2.43
2019-02-23T15:04:07.000Z,2.50
2019-02-23T15:09:10.664Z,2.30
2019-02-23T15:14:14.455Z,2.70
2019-02-23T15:19:17.661Z,2.50
2019-02-23T15:24:21.287Z,2.60
2019-02-23T15:29:24.813Z,2.40
2019-02-23T15:34:28.511Z,2.67
2019-02-23T15:39:32.374Z,2.60
2019-02-23T15:44:35.855Z,2.70
2019-02-23T15:49:39.786Z,2.43
2019-02-23T15:54:43.484Z,2.30
2019-02-23T15:59:47.323Z,2.53
2019-02-23T16:04:52.847Z,2.65
2019-02-23T16:09:57.345Z,2.80
2019-02-23T16:15:00.989Z,2.97
2019-02-23T16:20:04.639Z,3.10
2019-02-23T16:25:08.276Z,3.37
2019-02-23T16:30:11.766Z,3.53
2019-02-23T16:35:15.413Z,29.60
2019-02-23T16:40:20.000Z,73.30
2019-02-23T16:45:23.732Z,48.83
2019-02-23T16:50:27.396Z,4.63
2019-02-23T16:55:32.718Z,4.07
2019-02-23T17:00:36.434Z,4.20
2019-02-23T17:05:41.288Z,4.20
2019-02-23T17:10:44.792Z,4.43
2019-02-23T17:15:49.009Z,3.90
2019-02-23T17:20:54.084Z,4.70
2019-02-23T17:26:04.225Z,4.97
2019-02-23T17:31:03.023Z,4.30
2019-02-23T17:36:06.654Z,5.20
2019-02-23T17:46:14.277Z,6.53
2019-02-23T17:51:18.006Z,9.23
2019-02-23T17:56:21.635Z,29.87
2019-02-23T18:01:25.574Z,46.18
2019-02-23T18:06:31.346Z,24.73
2019-02-23T18:11:46.866Z,31.30
2019-02-23T18:16:56.549Z,25.30
2019-02-23T18:27:04.631Z,58.27
2019-02-23T18:32:23.801Z,48.20
2019-02-23T18:37:27.415Z,31.77
2019-02-23T18:42:32.728Z,20.27
2019-02-23T18:47:36.395Z,18.87
2019-02-23T18:52:39.981Z,43.57
2019-02-23T18:57:43.829Z,52.93
2019-02-23T19:02:47.439Z,39.30
2019-02-23T19:07:52.087Z,79.00
2019-02-23T19:12:58.045Z,69.87
2019-02-23T19:18:01.670Z,89.43
2019-02-23T19:23:05.432Z,215.25
2019-02-23T19:28:09.250Z,185.97
2019-02-23T19:33:14.576Z,81.43
2019-02-23T19:38:24.281Z,67.40
2019-02-23T19:43:27.745Z,22.40
2019-02-23T19:48:31.359Z,20.33
2019-02-23T19:53:34.975Z,202.93
2019-02-23T19:58:38.694Z,197.83
2019-02-23T20:03:42.742Z,57.33
2019-02-23T20:08:46.733Z,110.80
2019-02-23T20:13:50.481Z,50.13
2019-02-23T20:23:58.600Z,95.07
2019-02-23T20:29:03.075Z,98.95
2019-02-23T20:34:06.759Z,125.73
2019-02-23T20:39:10.477Z,77.70
2019-02-23T20:49:17.607Z,272.83
2019-02-23T20:54:22.359Z,149.70
2019-02-23T20:59:25.968Z,131.27
2019-02-23T21:04:29.626Z,118.20
2019-02-23T21:09:33.393Z,95.20
2019-02-23T21:14:37.096Z,90.13
2019-02-23T21:19:41.168Z,352.37
2019-02-23T21:24:44.873Z,271.90
2019-02-23T21:29:50.149Z,239.93
2019-02-23T21:34:53.831Z,298.90
2019-02-23T21:39:57.941Z,200.20
2019-02-23T21:45:03.403Z,155.87
2019-02-23T21:50:07.579Z,134.75
2019-02-23T22:00:15.116Z,264.67
2019-02-23T22:05:18.825Z,279.00
2019-02-23T22:10:23.702Z,154.40
2019-02-23T22:15:30.574Z,116.00
2019-02-23T22:20:34.506Z,247.43
2019-02-23T22:30:42.841Z,185.97
2019-02-23T22:35:47.725Z,82.08
2019-02-23T22:40:51.698Z,64.73
2019-02-23T22:45:55.508Z,115.10
2019-02-23T22:51:09.626Z,50.30
2019-02-23T22:56:13.392Z,61.77
2019-02-23T23:01:18.014Z,181.33
2019-02-23T23:06:21.747Z,84.80
2019-02-23T23:11:25.473Z,130.23
2019-02-23T23:21:32.895Z,88.72
2019-02-23T23:26:37.453Z,53.40
2019-02-23T23:31:41.158Z,84.07
2019-02-23T23:36:44.771Z,66.10
2019-02-23T23:41:49.274Z,157.77
2019-02-23T23:46:53.862Z,127.40
2019-02-23T23:51:59.789Z,60.77
2019-02-23T23:57:03.721Z,155.83
